createdAt,value
2018-03-28T00:01:55.733Z,40.37
2018-03-28T00:04:37.422Z,40.80
2018-03-28T00:07:16.689Z,35.13
2018-03-28T00:10:14.111Z,39.77
2018-03-28T00:13:16.668Z,33.20
2018-03-28T00:16:02.469Z,35.40
2018-03-28T00:18:49.476Z,38.37
2018-03-28T00:21:38.509Z,35.70
2018-03-28T00:24:31.814Z,37.07
2018-03-28T00:27:15.429Z,40.40
2018-03-28T01:28:29.975Z,43.83
2018-03-28T01:31:24.952Z,42.17
2018-03-28T01:34:18.277Z,40.40
2018-03-28T01:37:47.319Z,42.90
2018-03-28T04:59:47.993Z,38.23
2018-03-28T05:02:43.510Z,36.93
2018-03-28T05:05:35.569Z,35.60
2018-03-28T05:08:52.450Z,38.37
2018-03-28T05:11:40.941Z,44.60
2018-03-28T05:14:28.560Z,49.17
2018-03-28T05:17:26.778Z,41.30
2018-03-28T05:20:08.146Z,42.33
2018-03-28T05:22:56.720Z,41.97
2018-03-28T05:25:42.744Z,39.93
2018-03-28T05:29:08.884Z,36.43
2018-03-28T05:49:50.751Z,33.27
2018-03-28T05:56:18.016Z,32.03
2018-03-28T05:59:16.577Z,32.07
2018-03-28T06:07:44.843Z,29.77
2018-03-28T06:29:34.047Z,32.97
2018-03-28T06:48:52.206Z,37.27
2018-03-28T06:54:23.931Z,37.40
2018-03-28T06:57:02.219Z,36.67
2018-03-28T06:59:48.681Z,37.30
2018-03-28T07:02:35.203Z,34.43
2018-03-28T07:05:23.644Z,35.40
2018-03-28T07:08:13.137Z,37.40
2018-03-28T07:11:20.041Z,36.77
2018-03-28T07:14:25.786Z,34.30
2018-03-28T07:17:12.608Z,37.90
2018-03-28T07:25:35.100Z,38.97
2018-03-28T07:28:23.694Z,35.90
2018-03-28T07:31:20.490Z,34.60
2018-03-28T07:34:08.003Z,36.90
2018-03-28T07:37:01.764Z,34.33
2018-03-28T07:39:48.890Z,33.43
2018-03-28T07:42:31.703Z,34.90
2018-03-28T07:45:23.612Z,33.93
2018-03-28T07:48:10.039Z,34.67
2018-03-28T07:50:56.959Z,33.73
2018-03-28T07:53:39.387Z,35.23
2018-03-28T07:56:29.866Z,36.37
2018-03-28T07:59:23.672Z,38.58
2018-03-28T08:02:17.349Z,36.40
2018-03-28T08:05:02.329Z,39.33
2018-03-28T08:10:55.729Z,37.23
2018-03-28T08:13:59.200Z,33.20
2018-03-28T08:25:19.177Z,33.00
2018-03-28T08:28:07.088Z,31.43
2018-03-28T08:30:59.286Z,32.47
2018-03-28T08:37:18.826Z,33.33
2018-03-28T08:40:06.807Z,32.23
2018-03-28T08:42:53.131Z,35.73
2018-03-28T09:04:55.479Z,32.57
2018-03-28T09:07:55.451Z,34.07
2018-03-28T09:13:51.231Z,33.90
2018-03-28T09:19:54.460Z,34.27
2018-03-28T09:22:46.837Z,34.97
2018-03-28T09:25:34.550Z,34.70
2018-03-28T09:31:20.009Z,31.20
2018-03-28T09:37:01.973Z,33.60
2018-03-28T09:42:44.449Z,34.60
2018-03-28T09:46:30.372Z,32.67
2018-03-28T09:52:30.948Z,36.77
2018-03-28T09:55:25.573Z,35.63
2018-03-28T09:59:06.247Z,35.37
2018-03-28T10:02:02.782Z,40.22
2018-03-28T10:05:12.078Z,36.13
2018-03-28T10:08:12.453Z,31.47
2018-03-28T10:11:15.150Z,30.33
2018-03-28T10:17:18.985Z,37.27
2018-03-28T10:20:27.519Z,37.07
2018-03-28T10:23:33.592Z,35.03
2018-03-28T10:26:22.744Z,34.97
2018-03-28T10:35:54.151Z,38.73
2018-03-28T10:38:57.576Z,38.80
2018-03-28T10:44:43.500Z,36.47
2018-03-28T10:59:43.994Z,46.65
2018-03-28T11:02:49.760Z,37.60
2018-03-28T11:05:53.670Z,42.30
2018-03-28T11:08:43.366Z,40.97
2018-03-28T11:15:29.263Z,40.17
2018-03-28T11:18:20.015Z,38.50
2018-03-28T11:32:29.602Z,37.37
2018-03-28T11:35:33.370Z,38.13
2018-03-28T11:44:46.502Z,37.83
2018-03-28T11:47:35.759Z,34.23
2018-03-28T11:50:53.828Z,37.33
2018-03-28T12:11:41.332Z,29.17
2018-03-28T12:14:29.690Z,31.47
2018-03-28T12:30:11.628Z,31.33
2018-03-28T12:36:07.062Z,32.93
2018-03-28T12:39:06.568Z,33.90
2018-03-28T12:45:40.546Z,33.17
2018-03-28T12:54:33.402Z,29.30
2018-03-28T12:57:34.061Z,28.90
2018-03-28T13:00:24.547Z,26.43
2018-03-28T13:08:34.713Z,25.53
2018-03-28T13:14:45.111Z,24.67
2018-03-28T13:17:48.860Z,22.93
2018-03-28T13:20:47.535Z,23.27
2018-03-28T13:42:37.744Z,24.57
2018-03-28T13:46:08.923Z,22.47
2018-03-28T13:49:14.150Z,22.07
2018-03-28T13:52:18.455Z,20.70
2018-03-28T13:55:12.919Z,20.27
